SVMI/CCS METAR and TAF weather

Enter ICAO airport designator
Station Type Date Time Source
SVMI METAR 2022/07/03 14:03 UTC NOAA

SVMI 031403Z AUTO 08005KT NCD ///// Q1015


Station Type Date Time Source
SVMI Decoded METAR 2022/07/03 14:03 UTC NOAA

Caracas / Maiquetia Aerop. Intl. Simon Bolivar, Venezuela (SVMI) 10-36N 066-59W 48M
Jul 03, 2022 - 10:03 AM EDT / 2022.07.03 1403 UTC
Wind: from the E (080 degrees) at 6 MPH (5 KT):0
Pressure (altimeter): 29.97 in. Hg (1015 hPa)
ob: SVMI 031403Z AUTO 08005KT NCD ///// Q1015
cycle: 14

Station Type Date Time Source
SVMI TAF 2022/07/03 12:17 UTC NOAA

TAF SVMI 031000Z 0312/0412 11004KT 9999 SCT016 TX32/0318Z TN22/0307Z
TEMPO 0305/0303 09004KT 9999 BKN016

Example: see airport list